Time;durP1;ratioP1;P1;durP2;ratioP2;P2;SDS_P1;SDS_P2;PMS_P1;PMS_P2;Temp;Humidity;BMP_temperature;BMP_pressure;BME280_temperature;BME280_humidity;BME280_pressure;Samples;Min_cycle;Max_cycle;Signal;HPM_P1;HPM_P2
2021/07/03 00:01:08;;;;;;;4.50;4.10;;;15.90;99.90;;;;;;4965480;28;20437;-81
2021/07/03 00:03:34;;;;;;;4.63;4.10;;;15.90;99.90;;;;;;4970382;28;20490;-81
2021/07/03 00:06:00;;;;;;;4.40;4.00;;;15.90;99.90;;;;;;4949944;28;20398;-83
2021/07/03 00:08:27;;;;;;;4.80;4.10;;;15.90;99.90;;;;;;4960076;28;21257;-81
2021/07/03 00:10:55;;;;;;;5.27;4.77;;;15.90;99.90;;;;;;4970577;28;20404;-83
2021/07/03 00:13:20;;;;;;;4.82;4.30;;;15.80;99.90;;;;;;4982873;28;20426;-82
2021/07/03 00:15:46;;;;;;;4.93;4.43;;;15.70;99.90;;;;;;4975747;28;21014;-81
2021/07/03 00:18:13;;;;;;;4.80;4.40;;;15.80;99.90;;;;;;4938783;28;20403;-80
2021/07/03 00:20:39;;;;;;;4.53;4.13;;;15.80;99.90;;;;;;4961556;28;20543;-80
2021/07/03 00:23:05;;;;;;;4.63;4.20;;;15.70;99.90;;;;;;4975822;28;20404;-80
2021/07/03 00:25:34;;;;;;;5.15;4.65;;;15.70;99.90;;;;;;4965836;28;20403;-80
2021/07/03 00:28:00;;;;;;;4.68;4.28;;;15.70;99.90;;;;;;4968813;28;20498;-82
2021/07/03 00:30:25;;;;;;;4.95;4.50;;;15.60;99.90;;;;;;4978090;28;20399;-80
2021/07/03 00:32:51;;;;;;;6.60;4.20;;;15.70;99.90;;;;;;4961369;28;20407;-81
2021/07/03 00:35:17;;;;;;;5.07;4.55;;;15.60;99.90;;;;;;4963607;28;20397;-81
2021/07/03 00:37:42;;;;;;;5.63;5.10;;;15.60;99.90;;;;;;4966982;28;20427;-80
2021/07/03 00:40:09;;;;;;;5.55;4.35;;;15.60;99.90;;;;;;4953445;28;20766;-79
2021/07/03 00:42:34;;;;;;;5.00;4.50;;;15.60;99.90;;;;;;4966804;28;20406;-81
2021/07/03 00:45:01;;;;;;;4.90;4.50;;;15.50;99.90;;;;;;4984244;28;21047;-80
2021/07/03 00:47:26;;;;;;;4.90;4.37;;;15.50;99.90;;;;;;4936400;28;20400;-80
2021/07/03 00:49:52;;;;;;;5.47;4.90;;;15.50;99.90;;;;;;4971276;28;20449;-82
2021/07/03 00:52:18;;;;;;;5.32;4.82;;;15.50;99.90;;;;;;4937257;28;21140;-79
2021/07/03 00:54:46;;;;;;;5.13;4.47;;;15.40;99.90;;;;;;4946991;28;20487;-81
2021/07/03 00:57:15;;;;;;;5.38;4.88;;;15.40;99.90;;;;;;4968968;28;20475;-82
2021/07/03 00:59:45;;;;;;;5.03;4.53;;;15.40;99.90;;;;;;4958863;28;20408;-82
2021/07/03 01:02:17;;;;;;;4.85;4.35;;;15.40;99.90;;;;;;4963495;28;20471;-80
2021/07/03 01:04:43;;;;;;;4.13;3.83;;;15.40;99.90;;;;;;4965626;28;20400;-79
2021/07/03 01:07:09;;;;;;;6.15;4.68;;;15.30;99.90;;;;;;4952263;28;20396;-80
2021/07/03 01:09:36;;;;;;;4.57;4.18;;;15.30;99.90;;;;;;4962731;28;20420;-81
2021/07/03 01:12:02;;;;;;;5.23;4.73;;;15.30;99.90;;;;;;4974993;28;20476;-80
2021/07/03 01:14:28;;;;;;;5.40;4.90;;;15.30;99.90;;;;;;4968554;28;21014;-81
2021/07/03 01:16:54;;;;;;;5.23;4.67;;;15.30;99.90;;;;;;4951347;28;20443;-80
2021/07/03 01:19:20;;;;;;;4.38;3.97;;;15.40;99.90;;;;;;4962100;28;20410;-79
2021/07/03 01:21:54;;;;;;;5.40;4.90;;;15.40;99.90;;;;;;4940170;28;20450;-79
2021/07/03 01:24:23;;;;;;;5.60;5.10;;;15.40;99.90;;;;;;4954721;28;20941;-83
2021/07/03 01:26:50;;;;;;;4.90;4.50;;;15.30;99.90;;;;;;4944789;28;20412;-80
2021/07/03 01:29:17;;;;;;;5.00;4.50;;;15.40;99.90;;;;;;4954316;28;20407;-79
2021/07/03 01:31:44;;;;;;;4.93;4.53;;;15.40;99.90;;;;;;4955176;28;20457;-81
2021/07/03 01:34:10;;;;;;;6.50;5.22;;;15.40;99.90;;;;;;4951829;28;20408;-80
2021/07/03 01:36:36;;;;;;;4.75;4.32;;;15.30;99.90;;;;;;4954676;28;20580;-81
2021/07/03 01:39:03;;;;;;;4.97;4.57;;;15.30;99.90;;;;;;4952393;28;20836;-80
2021/07/03 01:41:29;;;;;;;5.10;4.60;;;15.20;99.90;;;;;;4986176;28;20937;-81
2021/07/03 01:43:56;;;;;;;6.78;5.13;;;15.20;99.90;;;;;;4948605;28;20400;-82
2021/07/03 01:46:21;;;;;;;6.00;5.50;;;15.20;99.90;;;;;;4979315;28;20523;-88
2021/07/03 01:48:47;;;;;;;7.40;5.85;;;15.10;99.90;;;;;;4960502;28;20398;-81
2021/07/03 01:51:23;;;;;;;6.97;5.38;;;15.10;99.90;;;;;;4973817;28;20459;-81
2021/07/03 01:53:50;;;;;;;6.18;5.63;;;15.10;99.90;;;;;;4969784;28;20415;-80
2021/07/03 01:56:16;;;;;;;5.50;5.00;;;15.10;99.90;;;;;;4971629;28;20906;-84
2021/07/03 01:58:42;;;;;;;5.40;4.88;;;15.10;99.90;;;;;;4962652;28;20408;-80
2021/07/03 02:01:16;;;;;;;6.35;5.45;;;15.10;99.90;;;;;;4970370;28;20408;-80
2021/07/03 02:03:43;;;;;;;6.07;5.47;;;15.10;99.90;;;;;;4987578;28;20402;-80
2021/07/03 02:06:14;;;;;;;6.13;5.53;;;15.10;99.90;;;;;;4970864;28;20491;-81
2021/07/03 02:08:40;;;;;;;5.70;5.30;;;15.10;99.90;;;;;;4980333;28;20813;-81
2021/07/03 02:11:12;;;;;;;5.88;5.38;;;15.10;99.90;;;;;;4972380;28;20487;-80
2021/07/03 02:13:41;;;;;;;6.13;5.55;;;15.10;99.90;;;;;;4959845;28;20414;-82
2021/07/03 02:16:07;;;;;;;5.90;5.40;;;15.10;99.90;;;;;;4969433;28;20411;-80
2021/07/03 02:18:34;;;;;;;6.47;5.78;;;15.10;99.90;;;;;;4969320;28;20437;-81
2021/07/03 02:21:06;;;;;;;7.00;5.90;;;15.20;99.90;;;;;;4955767;28;20415;-82
2021/07/03 02:23:33;;;;;;;6.50;5.90;;;15.10;99.90;;;;;;4954996;28;20415;-80
2021/07/03 02:26:00;;;;;;;6.28;5.68;;;15.10;99.90;;;;;;4968914;28;20407;-83
2021/07/03 02:28:31;;;;;;;5.73;5.23;;;15.10;99.90;;;;;;4967900;28;20429;-80
2021/07/03 02:31:17;;;;;;;6.85;5.85;;;15.10;99.90;;;;;;4962866;28;20416;-83
2021/07/03 02:33:49;;;;;;;7.28;6.43;;;15.10;99.90;;;;;;4946065;28;20457;-80
2021/07/03 02:36:18;;;;;;;7.13;5.55;;;15.10;99.90;;;;;;4971506;28;20410;-85
2021/07/03 02:38:44;;;;;;;7.17;6.47;;;15.10;99.90;;;;;;4962112;28;20414;-79
2021/07/03 02:41:12;;;;;;;8.50;6.78;;;15.10;99.90;;;;;;4953580;28;20417;-81
2021/07/03 02:43:38;;;;;;;6.22;5.55;;;14.90;99.90;;;;;;4970763;28;20402;-81
2021/07/03 02:46:10;;;;;;;6.65;6.03;;;14.90;99.90;;;;;;4942500;28;20393;-81
2021/07/03 02:48:36;;;;;;;7.27;6.07;;;14.90;99.90;;;;;;4952881;28;20422;-81
2021/07/03 02:51:02;;;;;;;6.60;5.55;;;14.90;99.90;;;;;;4951058;28;20968;-81
2021/07/03 02:53:29;;;;;;;6.13;5.63;;;14.90;99.90;;;;;;4986483;28;20624;-84
2021/07/03 02:55:55;;;;;;;8.98;6.90;;;14.90;99.90;;;;;;4969578;28;20935;-80
2021/07/03 02:58:22;;;;;;;6.88;6.28;;;14.90;99.90;;;;;;4956422;28;20477;-80
2021/07/03 03:00:48;;;;;;;7.77;6.97;;;14.80;99.90;;;;;;4991404;28;20422;-80
2021/07/03 03:03:14;;;;;;;7.37;6.57;;;14.80;99.90;;;;;;4971737;28;20404;-80
2021/07/03 03:05:41;;;;;;;6.45;5.85;;;14.80;99.90;;;;;;4941635;28;20396;-81
2021/07/03 03:08:07;;;;;;;6.93;6.05;;;14.80;99.90;;;;;;4973832;28;20399;-83
2021/07/03 03:10:33;;;;;;;6.80;6.10;;;14.80;99.90;;;;;;4986143;28;20393;-81
2021/07/03 03:12:59;;;;;;;6.83;5.97;;;14.70;99.90;;;;;;4982833;28;20397;-81
2021/07/03 03:15:28;;;;;;;7.90;7.10;;;14.70;99.90;;;;;;4973162;28;20405;-83
2021/07/03 03:17:59;;;;;;;6.72;6.05;;;14.70;99.90;;;;;;4936514;28;20933;-80
2021/07/03 03:20:24;;;;;;;7.43;6.70;;;14.70;99.90;;;;;;4960825;28;20393;-83
2021/07/03 03:22:52;;;;;;;6.75;6.05;;;14.70;99.90;;;;;;4974866;28;20440;-80
2021/07/03 03:25:18;;;;;;;7.45;6.75;;;14.70;99.90;;;;;;4968631;28;20394;-82
2021/07/03 03:27:44;;;;;;;7.88;6.85;;;14.70;99.90;;;;;;4962253;28;20435;-81
2021/07/03 03:30:11;;;;;;;8.27;6.82;;;14.70;99.90;;;;;;4961601;28;20416;-81
2021/07/03 03:32:40;;;;;;;7.72;6.05;;;14.60;99.90;;;;;;4929423;28;20433;-90
2021/07/03 03:35:08;;;;;;;8.38;6.90;;;14.70;99.90;;;;;;4930193;28;20393;-86
2021/07/03 03:37:34;;;;;;;9.93;7.70;;;14.70;99.90;;;;;;4966666;28;20567;-85
2021/07/03 03:40:00;;;;;;;7.30;6.00;;;14.70;99.90;;;;;;4978273;28;20393;-89
2021/07/03 03:42:26;;;;;;;7.03;6.32;;;14.70;99.90;;;;;;5013199;28;20417;-85
2021/07/03 03:44:52;;;;;;;7.85;7.05;;;14.70;99.90;;;;;;4950814;28;20471;-80
2021/07/03 03:47:18;;;;;;;7.13;6.10;;;14.80;99.90;;;;;;4976331;28;20398;-83
2021/07/03 03:49:44;;;;;;;7.45;6.38;;;14.80;99.90;;;;;;4932117;28;20438;-81
2021/07/03 03:52:16;;;;;;;7.22;6.15;;;14.80;99.90;;;;;;4964877;28;20402;-81
2021/07/03 03:54:42;;;;;;;8.85;7.07;;;14.80;99.90;;;;;;4974121;28;20408;-80
2021/07/03 03:57:21;;;;;;;8.88;7.97;;;14.80;99.90;;;;;;4961657;28;20476;-80
2021/07/03 03:59:48;;;;;;;8.10;7.30;;;14.90;99.90;;;;;;4987058;28;20415;-80
2021/07/03 04:02:14;;;;;;;8.98;7.90;;;14.90;99.90;;;;;;4962600;28;20430;-82
2021/07/03 04:04:40;;;;;;;7.57;6.82;;;15.00;99.90;;;;;;4963680;28;20408;-81
2021/07/03 04:07:06;;;;;;;9.23;7.68;;;15.10;99.90;;;;;;4947595;28;20414;-81
2021/07/03 04:09:33;;;;;;;8.13;7.32;;;15.20;99.90;;;;;;4951681;28;20433;-82
2021/07/03 04:11:59;;;;;;;7.57;6.77;;;15.10;99.90;;;;;;4955261;28;20438;-79
2021/07/03 04:14:24;;;;;;;8.82;7.93;;;15.40;99.90;;;;;;4960165;28;20437;-79
2021/07/03 04:16:50;;;;;;;8.20;7.40;;;15.50;99.90;;;;;;4978516;28;20408;-79
2021/07/03 04:19:16;;;;;;;7.27;6.57;;;15.60;99.90;;;;;;4956210;28;20416;-79
2021/07/03 04:21:42;;;;;;;7.75;6.93;;;15.70;99.90;;;;;;4951805;28;20408;-80
2021/07/03 04:24:07;;;;;;;9.55;7.38;;;15.90;99.90;;;;;;4952500;28;20414;-80
2021/07/03 04:26:33;;;;;;;8.87;7.40;;;16.00;99.90;;;;;;4956692;28;20418;-79
2021/07/03 04:28:59;;;;;;;8.20;7.32;;;16.10;99.90;;;;;;4964617;28;20408;-80
2021/07/03 04:31:24;;;;;;;8.83;7.40;;;16.20;99.90;;;;;;4954881;28;20861;-80
2021/07/03 04:33:50;;;;;;;8.50;7.57;;;16.30;99.90;;;;;;4968967;28;20410;-80
2021/07/03 04:36:16;;;;;;;7.68;6.88;;;16.40;99.90;;;;;;4961899;28;20459;-80
2021/07/03 04:38:41;;;;;;;8.17;6.90;;;16.50;99.90;;;;;;4965065;28;20470;-79
2021/07/03 04:41:09;;;;;;;8.05;7.28;;;16.50;99.90;;;;;;4971631;28;21042;-81
2021/07/03 04:43:35;;;;;;;8.07;7.28;;;16.60;99.90;;;;;;4951632;28;20487;-79
2021/07/03 04:46:00;;;;;;;8.73;7.70;;;16.60;99.90;;;;;;4964674;28;20407;-80
2021/07/03 04:48:26;;;;;;;9.45;8.15;;;16.70;99.90;;;;;;4953960;28;20481;-79
2021/07/03 04:50:52;;;;;;;8.43;7.50;;;16.80;99.90;;;;;;4969625;28;20472;-81
2021/07/03 04:53:17;;;;;;;8.52;7.63;;;16.80;99.90;;;;;;4971425;28;20411;-79
2021/07/03 04:55:44;;;;;;;9.23;7.83;;;16.90;99.90;;;;;;4969636;28;20403;-80
2021/07/03 04:58:10;;;;;;;8.80;7.32;;;16.90;99.90;;;;;;4969259;28;20458;-80
2021/07/03 05:00:35;;;;;;;8.27;7.37;;;16.90;99.90;;;;;;4972835;28;20424;-81
2021/07/03 05:03:01;;;;;;;10.10;8.43;;;16.90;99.90;;;;;;4972103;28;20389;-80
2021/07/03 05:05:27;;;;;;;7.57;6.78;;;16.90;99.90;;;;;;4967717;28;20485;-81
2021/07/03 05:07:52;;;;;;;9.83;8.30;;;17.00;99.90;;;;;;4959113;28;20408;-82
2021/07/03 05:10:18;;;;;;;9.00;8.05;;;17.00;99.90;;;;;;4951216;28;21157;-81
2021/07/03 05:12:44;;;;;;;9.43;7.43;;;17.10;99.90;;;;;;4966412;28;20400;-80
2021/07/03 05:15:10;;;;;;;8.52;7.72;;;17.10;99.90;;;;;;4974807;28;20957;-79
2021/07/03 05:17:36;;;;;;;7.47;6.72;;;17.10;99.90;;;;;;4977581;28;20389;-81
2021/07/03 05:20:02;;;;;;;8.70;7.57;;;17.00;99.90;;;;;;4968430;28;20424;-80
2021/07/03 05:22:28;;;;;;;7.90;7.10;;;17.20;99.90;;;;;;4971268;28;20418;-80
2021/07/03 05:24:54;;;;;;;10.80;7.90;;;17.10;99.90;;;;;;4979001;28;20771;-80
2021/07/03 05:27:19;;;;;;;9.17;8.10;;;17.10;99.90;;;;;;4982418;28;20414;-80
2021/07/03 05:29:45;;;;;;;9.43;8.23;;;17.10;99.90;;;;;;4967557;28;20415;-83
2021/07/03 05:32:11;;;;;;;9.20;7.40;;;17.20;99.90;;;;;;4963396;28;20412;-80
2021/07/03 05:34:36;;;;;;;9.80;8.13;;;17.20;99.90;;;;;;4951248;28;21353;-80
2021/07/03 05:37:02;;;;;;;7.83;7.03;;;17.20;99.90;;;;;;4961596;28;20407;-81
2021/07/03 05:39:28;;;;;;;9.27;7.82;;;17.30;99.90;;;;;;4968827;28;20419;-81
2021/07/03 05:41:54;;;;;;;9.20;8.00;;;17.50;99.90;;;;;;4954764;28;20477;-82
2021/07/03 05:44:20;;;;;;;9.07;7.75;;;17.60;99.90;;;;;;4984416;28;20406;-81
2021/07/03 05:46:46;;;;;;;7.25;6.55;;;17.70;99.90;;;;;;4969672;28;20487;-81
2021/07/03 05:49:12;;;;;;;8.40;7.60;;;18.00;99.90;;;;;;4952396;28;21074;-80
2021/07/03 05:51:37;;;;;;;8.07;7.03;;;18.10;99.90;;;;;;4970989;28;20590;-82
2021/07/03 05:54:03;;;;;;;9.03;7.47;;;18.30;99.90;;;;;;4968078;28;20498;-81
2021/07/03 05:56:28;;;;;;;8.18;7.22;;;18.50;99.90;;;;;;4966307;28;20787;-81
2021/07/03 05:58:55;;;;;;;9.43;8.13;;;18.60;99.90;;;;;;4954161;28;20407;-82
2021/07/03 06:01:21;;;;;;;7.90;7.10;;;18.70;99.90;;;;;;4978393;28;20419;-81
2021/07/03 06:03:48;;;;;;;8.55;7.43;;;18.80;99.90;;;;;;4959030;28;20405;-84
2021/07/03 06:06:14;;;;;;;6.57;5.97;;;18.90;99.90;;;;;;4959537;28;20408;-83
2021/07/03 06:08:39;;;;;;;7.73;6.67;;;19.00;99.90;;;;;;4965499;28;20405;-84
2021/07/03 06:11:05;;;;;;;7.38;5.63;;;19.20;99.90;;;;;;4960821;28;20400;-83
2021/07/03 06:13:31;;;;;;;6.33;5.60;;;19.40;99.90;;;;;;4978841;28;20428;-84
2021/07/03 06:15:56;;;;;;;7.47;6.63;;;19.40;99.90;;;;;;4987362;28;20402;-81
2021/07/03 06:18:22;;;;;;;8.90;7.70;;;19.50;99.90;;;;;;4968944;28;20412;-80
2021/07/03 06:20:48;;;;;;;11.13;8.47;;;19.40;99.90;;;;;;4970398;28;20414;-84
2021/07/03 06:23:13;;;;;;;6.88;6.18;;;19.40;99.90;;;;;;4960880;28;20516;-80
2021/07/03 06:25:39;;;;;;;7.28;6.07;;;19.50;99.90;;;;;;4968268;28;20433;-84
2021/07/03 06:28:05;;;;;;;6.40;5.80;;;19.60;99.90;;;;;;4964265;28;20410;-81
2021/07/03 06:30:30;;;;;;;6.57;5.95;;;19.90;99.90;;;;;;4968580;28;20907;-82
2021/07/03 06:32:56;;;;;;;7.10;5.87;;;19.90;99.90;;;;;;4992238;28;20747;-81
2021/07/03 06:35:21;;;;;;;6.50;5.80;;;20.10;99.90;;;;;;4975687;28;20778;-81
2021/07/03 06:37:47;;;;;;;6.63;6.00;;;20.20;99.90;;;;;;4985659;28;20399;-81
2021/07/03 06:40:13;;;;;;;6.60;6.00;;;20.30;99.90;;;;;;4955836;28;20433;-78
2021/07/03 06:42:38;;;;;;;8.52;6.22;;;20.40;99.90;;;;;;4990094;28;20444;-80
2021/07/03 06:45:05;;;;;;;6.80;6.20;;;20.60;99.90;;;;;;4964855;28;20783;-81
2021/07/03 06:47:30;;;;;;;6.45;5.65;;;20.70;99.90;;;;;;4971963;28;20407;-81
2021/07/03 06:49:56;;;;;;;5.70;5.13;;;20.90;99.90;;;;;;4966747;28;20788;-81
2021/07/03 06:52:22;;;;;;;5.70;5.18;;;21.10;99.90;;;;;;4974767;28;20476;-81
2021/07/03 06:54:48;;;;;;;6.43;5.85;;;21.10;99.90;;;;;;4977696;28;20406;-79
2021/07/03 06:57:14;;;;;;;6.93;6.22;;;21.30;99.90;;;;;;4981368;28;20491;-81
2021/07/03 06:59:39;;;;;;;6.40;5.80;;;21.50;99.90;;;;;;4969693;28;20412;-83
2021/07/03 07:02:05;;;;;;;5.43;4.93;;;21.60;99.90;;;;;;4960012;28;20416;-79
2021/07/03 07:04:31;;;;;;;7.70;5.10;;;21.90;99.90;;;;;;4969836;28;20403;-81
2021/07/03 07:06:56;;;;;;;5.97;5.37;;;22.00;99.90;;;;;;4943715;28;20506;-80
2021/07/03 07:09:23;;;;;;;5.47;4.97;;;22.20;99.90;;;;;;4965151;28;20426;-82
2021/07/03 07:11:49;;;;;;;6.55;5.15;;;22.30;99.90;;;;;;4980172;28;20471;-83
2021/07/03 07:14:15;;;;;;;5.72;5.22;;;22.50;99.90;;;;;;4966747;28;20469;-82
2021/07/03 07:16:41;;;;;;;5.50;5.00;;;22.60;99.90;;;;;;4962149;28;20422;-87
2021/07/03 07:19:11;;;;;;;4.50;4.10;;;22.70;99.90;;;;;;4994543;28;20448;-81
2021/07/03 07:21:39;;;;;;;5.00;4.18;;;22.90;99.90;;;;;;4935669;28;20424;-85
2021/07/03 07:24:07;;;;;;;6.13;5.25;;;23.00;99.90;;;;;;4986089;28;20416;-81
2021/07/03 07:26:35;;;;;;;5.45;4.65;;;22.80;99.90;;;;;;4986900;28;20426;-87
2021/07/03 07:29:06;;;;;;;4.20;3.80;;;22.90;99.90;;;;;;4981475;28;20418;-88
2021/07/03 07:31:37;;;;;;;4.88;4.47;;;22.90;99.90;;;;;;4943512;28;20422;-84
2021/07/03 07:34:08;;;;;;;5.68;4.70;;;22.90;99.90;;;;;;4990335;28;21150;-84
2021/07/03 07:36:37;;;;;;;5.05;4.43;;;22.80;99.90;;;;;;4989371;28;20444;-86
2021/07/03 07:39:07;;;;;;;6.23;4.23;;;23.00;99.90;;;;;;4960721;28;20416;-89
2021/07/03 07:41:38;;;;;;;6.53;5.80;;;23.10;99.90;;;;;;4998828;28;20409;-91
2021/07/03 07:44:07;;;;;;;4.97;4.50;;;23.40;99.90;;;;;;4997655;23;20413;-84
2021/07/03 07:46:38;;;;;;;5.20;4.70;;;23.50;99.90;;;;;;4947673;28;20411;-81
2021/07/03 07:49:12;;;;;;;5.38;4.78;;;23.60;99.90;;;;;;4961721;28;20401;-83
2021/07/03 07:51:42;;;;;;;7.23;4.60;;;23.70;99.90;;;;;;4963993;28;20424;-79
2021/07/03 07:54:28;;;;;;;5.07;4.15;;;23.70;99.90;;;;;;5001107;28;20424;-79
2021/07/03 07:57:10;;;;;;;4.60;4.20;;;24.00;99.90;;;;;;4977707;28;20965;-79
2021/07/03 08:00:36;;;;;;;4.90;4.47;;;24.10;99.90;;;;;;4930565;28;20405;-82
2021/07/03 08:03:05;;;;;;;5.15;4.65;;;24.50;99.90;;;;;;4993354;28;20409;-80
2021/07/03 08:12:25;;;;;;;5.60;4.00;;;24.50;99.90;;;;;;5162020;23;20416;-87
2021/07/03 08:19:23;;;;;;;4.38;3.88;;;25.20;99.90;;;;;;4914002;29;20437;-79
2021/07/03 08:21:48;;;;;;;4.30;3.90;;;24.90;99.90;;;;;;4909688;29;20490;-78
2021/07/03 08:24:14;;;;;;;4.33;3.93;;;25.00;99.90;;;;;;4904368;29;20411;-79
2021/07/03 08:26:40;;;;;;;4.05;3.60;;;25.40;99.90;;;;;;4901589;29;20813;-78
2021/07/03 08:29:06;;;;;;;3.67;3.20;;;25.50;99.90;;;;;;4931481;29;20919;-77
2021/07/03 08:31:31;;;;;;;3.83;3.50;;;25.70;99.90;;;;;;4901828;29;20408;-78
2021/07/03 08:34:01;;;;;;;4.10;3.72;;;25.80;99.90;;;;;;4915312;29;20422;-80
2021/07/03 08:36:37;;;;;;;4.22;3.83;;;25.70;99.90;;;;;;4931144;29;20448;-80
2021/07/03 08:39:04;;;;;;;10.57;5.35;;;25.60;99.90;;;;;;4934670;28;20814;-80
2021/07/03 08:41:29;;;;;;;6.40;4.50;;;25.70;99.90;;;;;;4918982;29;20409;-80
2021/07/03 08:52:43;;;;;;;3.15;2.85;;;25.70;99.90;;;;;;5102110;23;20828;-81
2021/07/03 08:55:15;;;;;;;3.65;3.15;;;26.10;99.90;;;;;;4896645;29;20444;-80
2021/07/03 08:58:11;;;;;;;4.78;3.60;;;26.40;99.90;;;;;;4912169;29;20451;-79
2021/07/03 09:00:44;;;;;;;3.00;2.70;;;26.50;99.90;;;;;;4894293;29;20420;-80
2021/07/03 09:03:26;;;;;;;4.30;2.95;;;26.40;99.90;;;;;;4895200;29;20409;-80
2021/07/03 09:06:21;;;;;;;3.63;3.33;;;26.70;99.90;;;;;;4911333;29;20404;-78
2021/07/03 09:08:53;;;;;;;3.70;3.20;;;27.20;99.90;;;;;;4884838;29;20431;-80
2021/07/03 09:11:19;;;;;;;3.30;3.00;;;27.40;99.90;;;;;;4908132;29;20449;-80
2021/07/03 09:14:21;;;;;;;2.90;2.70;;;27.50;99.90;;;;;;4907488;29;20446;-80
2021/07/03 09:16:47;;;;;;;2.83;2.38;;;27.40;99.90;;;;;;4879112;29;20471;-80
2021/07/03 09:19:13;;;;;;;3.00;2.70;;;27.60;99.90;;;;;;4880242;29;20397;-80
2021/07/03 09:21:43;;;;;;;4.00;2.88;;;27.90;99.90;;;;;;4891694;29;26967;-82
2021/07/03 09:24:13;;;;;;;3.93;3.27;;;27.90;99.90;;;;;;4909460;29;20407;-82
2021/07/03 09:26:39;;;;;;;4.68;3.03;;;28.10;99.90;;;;;;4918485;29;20763;-81
2021/07/03 09:29:09;;;;;;;3.93;2.60;;;28.20;99.90;;;;;;4891658;29;20389;-80
2021/07/03 09:31:35;;;;;;;3.08;2.78;;;28.10;99.90;;;;;;4906300;29;20419;-78
2021/07/03 09:34:01;;;;;;;2.78;2.58;;;28.30;99.90;;;;;;4891302;29;20395;-80
2021/07/03 09:36:28;;;;;;;3.70;2.43;;;28.80;99.90;;;;;;4891955;29;20443;-80
2021/07/03 09:38:55;;;;;;;2.08;1.98;;;29.10;99.90;;;;;;4907936;29;20411;-80
2021/07/03 09:41:28;;;;;;;3.75;2.50;;;29.30;99.90;;;;;;4912309;29;22062;-78
2021/07/03 09:43:54;;;;;;;2.30;2.20;;;29.40;99.90;;;;;;4884515;29;20399;-78
2021/07/03 09:46:30;;;;;;;3.45;2.67;;;29.50;99.90;;;;;;4928238;29;20412;-78
2021/07/03 09:49:00;;;;;;;4.22;3.20;;;29.80;99.90;;;;;;4913763;29;20419;-78
2021/07/03 09:51:27;;;;;;;4.37;2.90;;;29.90;98.50;;;;;;4915651;29;20499;-78
2021/07/03 09:53:54;;;;;;;2.78;2.42;;;29.80;98.40;;;;;;4939068;29;20417;-79
2021/07/03 09:56:20;;;;;;;4.35;3.40;;;30.00;99.30;;;;;;4893904;29;20766;-79
2021/07/03 09:58:46;;;;;;;2.80;2.60;;;30.40;97.90;;;;;;4894507;29;20463;-78
2021/07/03 10:01:11;;;;;;;2.63;2.42;;;30.50;93.40;;;;;;4896297;29;20834;-79
2021/07/03 10:03:39;;;;;;;2.85;2.25;;;30.30;96.60;;;;;;4926967;28;20441;-78
2021/07/03 10:06:05;;;;;;;2.15;2.05;;;30.50;94.60;;;;;;4926495;29;20403;-79
2021/07/03 10:08:31;;;;;;;2.53;2.33;;;30.60;92.10;;;;;;4901247;29;20397;-78
2021/07/03 10:10:58;;;;;;;2.50;2.30;;;30.80;91.90;;;;;;4882622;28;20397;-78
2021/07/03 10:13:24;;;;;;;2.50;2.30;;;30.70;92.20;;;;;;4920256;29;20429;-78
2021/07/03 10:15:50;;;;;;;3.30;2.30;;;30.70;93.00;;;;;;4884809;29;20408;-78
2021/07/03 10:18:22;;;;;;;2.43;2.03;;;30.80;93.50;;;;;;4904940;29;20416;-79
2021/07/03 10:20:49;;;;;;;2.72;2.50;;;31.10;87.90;;;;;;4918335;29;20409;-79
2021/07/03 10:23:14;;;;;;;3.05;2.30;;;31.00;91.10;;;;;;4907069;29;20398;-78
2021/07/03 10:25:44;;;;;;;2.70;2.30;;;30.80;90.90;;;;;;4919194;29;20409;-78
2021/07/03 10:28:12;;;;;;;3.77;2.77;;;30.30;91.20;;;;;;4881902;29;20416;-78
2021/07/03 10:30:39;;;;;;;2.80;2.60;;;30.30;90.40;;;;;;4908360;29;20472;-78
2021/07/03 10:33:18;;;;;;;2.42;2.22;;;30.30;90.90;;;;;;4915877;29;21004;-78
2021/07/03 10:35:54;;;;;;;2.65;2.05;;;30.50;87.90;;;;;;4898355;29;20411;-78
2021/07/03 10:38:27;;;;;;;4.00;3.25;;;30.70;88.50;;;;;;4911781;29;20447;-78
2021/07/03 10:40:54;;;;;;;5.70;2.07;;;31.00;86.00;;;;;;4921992;29;20442;-81
2021/07/03 10:43:22;;;;;;;2.27;2.07;;;30.90;86.70;;;;;;4929601;29;20432;-79
2021/07/03 10:45:53;;;;;;;3.88;2.08;;;30.70;81.80;;;;;;4888193;29;20414;-82
2021/07/03 10:48:21;;;;;;;2.42;2.22;;;30.40;90.00;;;;;;4897706;29;20407;-82
2021/07/03 10:50:47;;;;;;;2.28;2.10;;;31.00;91.30;;;;;;4925752;28;20467;-83
2021/07/03 10:53:39;;;;;;;2.28;2.08;;;31.50;90.10;;;;;;4936951;29;20414;-80
2021/07/03 10:56:13;;;;;;;2.25;2.00;;;32.30;87.50;;;;;;4910188;28;20401;-82
2021/07/03 10:58:40;;;;;;;3.20;2.20;;;32.90;81.10;;;;;;4878210;29;20405;-82
2021/07/03 11:01:12;;;;;;;2.60;2.40;;;33.10;80.20;;;;;;4901570;29;21025;-85
2021/07/03 11:03:45;;;;;;;2.42;2.13;;;33.30;76.50;;;;;;4869975;29;20744;-81
2021/07/03 11:06:17;;;;;;;2.80;2.60;;;33.20;78.60;;;;;;4906687;29;20393;-81
2021/07/03 11:08:44;;;;;;;2.85;2.00;;;33.10;79.00;;;;;;4929762;29;20452;-82
2021/07/03 11:11:11;;;;;;;2.50;2.15;;;33.30;76.40;;;;;;4891151;29;20424;-85
2021/07/03 11:13:37;;;;;;;2.40;2.20;;;33.20;72.30;;;;;;4923862;29;20464;-82
2021/07/03 11:16:06;;;;;;;2.13;1.92;;;33.40;70.40;;;;;;4884364;29;20405;-83
2021/07/03 11:18:43;;;;;;;2.40;2.20;;;34.20;79.20;;;;;;4923209;29;20405;-81
2021/07/03 11:21:11;;;;;;;1.90;1.80;;;34.30;74.30;;;;;;4909943;28;20427;-81
2021/07/03 11:23:37;;;;;;;3.50;2.00;;;33.90;71.20;;;;;;4926574;29;20480;-81
2021/07/03 11:26:11;;;;;;;2.13;1.93;;;33.40;71.00;;;;;;4901371;29;21215;-81
2021/07/03 11:28:37;;;;;;;2.00;1.90;;;33.50;73.00;;;;;;4903221;28;20411;-87
2021/07/03 11:31:03;;;;;;;2.10;1.90;;;33.90;69.50;;;;;;4928804;29;20416;-81
2021/07/03 11:33:30;;;;;;;1.95;1.85;;;34.10;70.30;;;;;;4895259;29;20376;-79
2021/07/03 11:35:56;;;;;;;1.80;1.70;;;34.70;69.40;;;;;;4930491;29;20489;-82
2021/07/03 11:38:25;;;;;;;1.83;1.73;;;35.30;63.30;;;;;;4901172;29;20397;-81
2021/07/03 11:40:53;;;;;;;2.42;2.22;;;35.70;70.30;;;;;;4937320;28;20413;-84
2021/07/03 11:43:20;;;;;;;2.22;2.13;;;36.10;67.50;;;;;;4883759;29;20429;-84
2021/07/03 11:45:45;;;;;;;2.40;2.20;;;35.10;64.10;;;;;;4882417;29;20425;-82
2021/07/03 11:48:15;;;;;;;3.28;2.20;;;34.60;64.10;;;;;;4896267;28;20480;-84
2021/07/03 11:50:43;;;;;;;2.40;2.17;;;34.10;64.90;;;;;;4885333;28;20923;-82
2021/07/03 11:53:11;;;;;;;2.17;1.97;;;34.10;68.50;;;;;;4930755;29;20918;-83
2021/07/03 11:55:37;;;;;;;1.97;1.77;;;33.90;68.00;;;;;;4919670;29;20389;-81
2021/07/03 11:58:03;;;;;;;1.90;1.80;;;34.00;67.10;;;;;;4899221;29;20397;-84
2021/07/03 12:00:31;;;;;;;2.30;2.10;;;33.90;66.90;;;;;;4921687;29;20401;-85
2021/07/03 12:02:57;;;;;;;1.95;1.85;;;33.80;64.70;;;;;;4905309;29;20413;-85
2021/07/03 12:05:28;;;;;;;1.92;1.83;;;32.90;67.60;;;;;;4912041;29;20416;-87
2021/07/03 12:08:07;;;;;;;1.90;1.80;;;33.00;68.30;;;;;;4883986;29;21018;-85
2021/07/03 12:10:44;;;;;;;2.20;2.10;;;32.40;66.50;;;;;;4907972;28;20408;-87
2021/07/03 12:13:26;;;;;;;4.60;1.65;;;32.20;69.30;;;;;;4939016;28;20416;-86
2021/07/03 12:15:54;;;;;;;2.05;1.85;;;32.00;67.00;;;;;;4927269;28;20700;-87
2021/07/03 12:18:26;;;;;;;2.63;1.90;;;32.30;71.70;;;;;;4934423;28;20420;-82
2021/07/03 12:21:05;;;;;;;2.25;1.80;;;32.60;68.10;;;;;;4914856;29;20397;-87
2021/07/03 12:23:32;;;;;;;2.00;1.90;;;33.00;67.20;;;;;;4903968;29;20407;-82
2021/07/03 12:26:00;;;;;;;1.85;1.75;;;33.00;68.70;;;;;;4884307;29;20426;-84
2021/07/03 12:28:26;;;;;;;1.95;1.85;;;33.10;67.70;;;;;;4902083;29;20438;-86
2021/07/03 12:30:52;;;;;;;1.93;1.80;;;33.00;65.20;;;;;;4923642;29;20405;-85
2021/07/03 12:33:17;;;;;;;1.90;1.70;;;32.70;64.20;;;;;;4899058;29;20394;-89
2021/07/03 12:35:52;;;;;;;1.90;1.80;;;32.30;65.30;;;;;;4907282;29;20420;-85
2021/07/03 12:38:26;;;;;;;1.95;1.85;;;32.70;67.60;;;;;;4909417;29;20397;-85
2021/07/03 12:40:51;;;;;;;3.33;2.17;;;32.60;63.60;;;;;;4889306;29;20412;-83
2021/07/03 12:43:28;;;;;;;2.30;2.10;;;32.30;64.10;;;;;;4945915;28;20960;-86
2021/07/03 12:46:04;;;;;;;2.42;2.10;;;31.30;65.50;;;;;;4905321;29;20548;-85
2021/07/03 12:48:40;;;;;;;2.40;2.20;;;31.20;70.00;;;;;;4899673;29;20415;-83
2021/07/03 12:51:09;;;;;;;2.47;2.28;;;30.60;68.80;;;;;;4909639;29;20411;-87
2021/07/03 12:53:43;;;;;;;2.50;2.30;;;30.60;71.50;;;;;;4903501;29;20481;-85
2021/07/03 12:56:09;;;;;;;2.20;2.10;;;30.50;71.60;;;;;;4928177;28;20409;-87
2021/07/03 12:58:35;;;;;;;2.70;2.30;;;30.30;72.90;;;;;;4955630;28;20421;-82
2021/07/03 13:01:01;;;;;;;2.60;2.40;;;30.20;72.30;;;;;;4947405;28;20398;-85
2021/07/03 13:03:27;;;;;;;2.50;2.30;;;30.00;71.90;;;;;;4899341;29;20399;-83
2021/07/03 13:06:01;;;;;;;2.13;1.97;;;29.80;72.30;;;;;;4906188;28;20417;-85
2021/07/03 13:08:27;;;;;;;2.15;2.03;;;29.80;73.80;;;;;;4901692;29;20416;-85
2021/07/03 13:10:53;;;;;;;2.60;2.40;;;30.00;72.70;;;;;;4916397;29;20406;-87